sensor_id;sensor_type;location;lat;lon;timestamp;P1;durP1;ratioP1;P2;durP2;ratioP2
15669;SDS011;18524;45.190;5.732;2022-07-05T00:04:25;3.37;;;3.17;;
15669;SDS011;18524;45.190;5.732;2022-07-05T00:09:15;3.43;;;3.13;;
15669;SDS011;18524;45.190;5.732;2022-07-05T00:14:06;3.10;;;2.90;;
15669;SDS011;18524;45.190;5.732;2022-07-05T00:18:57;3.60;;;3.30;;
15669;SDS011;18524;45.190;5.732;2022-07-05T00:23:47;3.53;;;3.23;;
15669;SDS011;18524;45.190;5.732;2022-07-05T00:28:38;4.47;;;3.07;;
15669;SDS011;18524;45.190;5.732;2022-07-05T00:33:30;3.80;;;3.40;;
15669;SDS011;18524;45.190;5.732;2022-07-05T00:38:21;3.10;;;2.90;;
15669;SDS011;18524;45.190;5.732;2022-07-05T00:43:12;3.23;;;3.00;;
15669;SDS011;18524;45.190;5.732;2022-07-05T00:48:02;3.50;;;3.00;;
15669;SDS011;18524;45.190;5.732;2022-07-05T00:52:54;6.13;;;2.90;;
15669;SDS011;18524;45.190;5.732;2022-07-05T00:57:45;2.63;;;2.20;;
15669;SDS011;18524;45.190;5.732;2022-07-05T01:02:36;4.10;;;2.47;;
15669;SDS011;18524;45.190;5.732;2022-07-05T01:07:26;3.30;;;2.03;;
15669;SDS011;18524;45.190;5.732;2022-07-05T01:12:17;2.97;;;2.30;;
15669;SDS011;18524;45.190;5.732;2022-07-05T01:17:07;5.07;;;2.17;;
15669;SDS011;18524;45.190;5.732;2022-07-05T01:21:58;2.40;;;2.20;;
15669;SDS011;18524;45.190;5.732;2022-07-05T01:26:53;3.80;;;2.40;;
15669;SDS011;18524;45.190;5.732;2022-07-05T01:31:44;2.67;;;2.20;;
15669;SDS011;18524;45.190;5.732;2022-07-05T01:36:34;3.33;;;2.60;;
15669;SDS011;18524;45.190;5.732;2022-07-05T01:41:26;5.17;;;2.80;;
15669;SDS011;18524;45.190;5.732;2022-07-05T01:46:16;3.43;;;2.77;;
15669;SDS011;18524;45.190;5.732;2022-07-05T01:51:13;2.87;;;2.67;;
15669;SDS011;18524;45.190;5.732;2022-07-05T01:56:16;4.00;;;3.40;;
15669;SDS011;18524;45.190;5.732;2022-07-05T02:01:07;6.57;;;3.70;;
15669;SDS011;18524;45.190;5.732;2022-07-05T02:05:57;4.87;;;4.47;;
15669;SDS011;18524;45.190;5.732;2022-07-05T02:10:48;7.47;;;4.87;;
15669;SDS011;18524;45.190;5.732;2022-07-05T02:15:39;6.60;;;5.30;;
15669;SDS011;18524;45.190;5.732;2022-07-05T02:20:31;6.83;;;4.50;;
15669;SDS011;18524;45.190;5.732;2022-07-05T02:25:22;5.13;;;3.27;;
15669;SDS011;18524;45.190;5.732;2022-07-05T02:30:13;3.00;;;2.70;;
15669;SDS011;18524;45.190;5.732;2022-07-05T02:35:04;3.50;;;3.20;;
15669;SDS011;18524;45.190;5.732;2022-07-05T02:39:55;4.53;;;3.33;;
15669;SDS011;18524;45.190;5.732;2022-07-05T02:44:46;4.53;;;4.00;;
15669;SDS011;18524;45.190;5.732;2022-07-05T02:49:36;4.77;;;3.70;;
15669;SDS011;18524;45.190;5.732;2022-07-05T02:54:26;5.00;;;3.80;;
15669;SDS011;18524;45.190;5.732;2022-07-05T02:59:17;5.20;;;3.63;;
15669;SDS011;18524;45.190;5.732;2022-07-05T03:04:07;3.63;;;3.30;;
15669;SDS011;18524;45.190;5.732;2022-07-05T03:08:59;4.57;;;3.70;;
15669;SDS011;18524;45.190;5.732;2022-07-05T03:13:50;4.23;;;3.20;;
15669;SDS011;18524;45.190;5.732;2022-07-05T03:18:40;3.53;;;3.23;;
15669;SDS011;18524;45.190;5.732;2022-07-05T03:23:30;3.90;;;3.10;;
15669;SDS011;18524;45.190;5.732;2022-07-05T03:28:21;3.40;;;3.10;;
15669;SDS011;18524;45.190;5.732;2022-07-05T03:33:11;3.67;;;3.13;;
15669;SDS011;18524;45.190;5.732;2022-07-05T03:38:02;3.87;;;3.00;;
15669;SDS011;18524;45.190;5.732;2022-07-05T03:42:52;4.43;;;3.23;;
15669;SDS011;18524;45.190;5.732;2022-07-05T03:47:42;4.23;;;3.10;;
15669;SDS011;18524;45.190;5.732;2022-07-05T03:52:33;4.07;;;2.30;;
15669;SDS011;18524;45.190;5.732;2022-07-05T03:57:23;2.60;;;2.17;;
15669;SDS011;18524;45.190;5.732;2022-07-05T04:02:14;3.53;;;2.40;;
15669;SDS011;18524;45.190;5.732;2022-07-05T04:07:04;2.73;;;2.20;;
15669;SDS011;18524;45.190;5.732;2022-07-05T04:11:55;3.90;;;2.20;;
15669;SDS011;18524;45.190;5.732;2022-07-05T04:16:45;3.77;;;2.30;;
15669;SDS011;18524;45.190;5.732;2022-07-05T04:21:36;4.57;;;2.53;;
15669;SDS011;18524;45.190;5.732;2022-07-05T04:26:26;3.93;;;1.90;;
15669;SDS011;18524;45.190;5.732;2022-07-05T04:31:16;4.60;;;2.00;;
15669;SDS011;18524;45.190;5.732;2022-07-05T04:36:07;4.43;;;2.30;;
15669;SDS011;18524;45.190;5.732;2022-07-05T04:40:57;3.03;;;2.30;;
15669;SDS011;18524;45.190;5.732;2022-07-05T04:45:48;4.15;;;2.30;;
15669;SDS011;18524;45.190;5.732;2022-07-05T04:50:38;3.20;;;2.33;;
15669;SDS011;18524;45.190;5.732;2022-07-05T04:55:28;5.10;;;2.30;;
15669;SDS011;18524;45.190;5.732;2022-07-05T05:00:19;3.73;;;2.00;;
15669;SDS011;18524;45.190;5.732;2022-07-05T05:05:09;5.00;;;2.30;;
15669;SDS011;18524;45.190;5.732;2022-07-05T05:10:00;7.63;;;2.40;;
15669;SDS011;18524;45.190;5.732;2022-07-05T05:14:50;6.60;;;2.50;;
15669;SDS011;18524;45.190;5.732;2022-07-05T05:19:41;2.73;;;2.50;;
15669;SDS011;18524;45.190;5.732;2022-07-05T05:24:31;4.20;;;2.33;;
15669;SDS011;18524;45.190;5.732;2022-07-05T05:29:24;5.50;;;2.83;;
15669;SDS011;18524;45.190;5.732;2022-07-05T05:34:14;5.97;;;2.87;;
15669;SDS011;18524;45.190;5.732;2022-07-05T05:39:05;5.40;;;3.27;;
15669;SDS011;18524;45.190;5.732;2022-07-05T05:43:55;2.90;;;2.43;;
15669;SDS011;18524;45.190;5.732;2022-07-05T05:48:45;2.63;;;2.43;;
15669;SDS011;18524;45.190;5.732;2022-07-05T05:53:36;3.33;;;2.10;;
15669;SDS011;18524;45.190;5.732;2022-07-05T05:58:26;4.37;;;2.17;;
15669;SDS011;18524;45.190;5.732;2022-07-05T06:03:17;5.73;;;2.47;;
15669;SDS011;18524;45.190;5.732;2022-07-05T06:08:08;5.07;;;1.97;;
15669;SDS011;18524;45.190;5.732;2022-07-05T06:13:02;4.43;;;2.40;;
15669;SDS011;18524;45.190;5.732;2022-07-05T06:17:53;7.30;;;3.20;;
15669;SDS011;18524;45.190;5.732;2022-07-05T06:22:44;12.77;;;3.33;;
15669;SDS011;18524;45.190;5.732;2022-07-05T06:27:42;4.93;;;2.80;;
15669;SDS011;18524;45.190;5.732;2022-07-05T06:32:37;4.73;;;2.23;;
15669;SDS011;18524;45.190;5.732;2022-07-05T06:37:27;3.90;;;2.40;;
15669;SDS011;18524;45.190;5.732;2022-07-05T06:42:18;4.53;;;2.27;;
15669;SDS011;18524;45.190;5.732;2022-07-05T06:47:08;6.50;;;2.87;;
15669;SDS011;18524;45.190;5.732;2022-07-05T06:51:58;6.60;;;2.93;;
15669;SDS011;18524;45.190;5.732;2022-07-05T06:56:49;5.77;;;2.67;;
15669;SDS011;18524;45.190;5.732;2022-07-05T07:01:39;3.60;;;2.37;;
15669;SDS011;18524;45.190;5.732;2022-07-05T07:06:29;6.30;;;2.60;;
15669;SDS011;18524;45.190;5.732;2022-07-05T07:11:20;7.17;;;2.63;;
15669;SDS011;18524;45.190;5.732;2022-07-05T07:16:10;5.10;;;2.80;;
15669;SDS011;18524;45.190;5.732;2022-07-05T07:21:01;5.43;;;2.50;;
15669;SDS011;18524;45.190;5.732;2022-07-05T07:25:51;6.37;;;2.53;;
15669;SDS011;18524;45.190;5.732;2022-07-05T07:30:41;4.27;;;2.60;;
15669;SDS011;18524;45.190;5.732;2022-07-05T07:35:32;3.53;;;2.07;;
15669;SDS011;18524;45.190;5.732;2022-07-05T07:40:22;4.23;;;2.40;;
15669;SDS011;18524;45.190;5.732;2022-07-05T07:45:13;4.03;;;2.33;;
15669;SDS011;18524;45.190;5.732;2022-07-05T07:50:04;8.43;;;2.50;;
15669;SDS011;18524;45.190;5.732;2022-07-05T07:54:56;4.10;;;2.60;;
15669;SDS011;18524;45.190;5.732;2022-07-05T07:59:46;4.50;;;2.20;;
15669;SDS011;18524;45.190;5.732;2022-07-05T08:04:37;4.63;;;2.13;;
15669;SDS011;18524;45.190;5.732;2022-07-05T08:09:27;4.13;;;2.27;;
15669;SDS011;18524;45.190;5.732;2022-07-05T08:14:18;4.80;;;2.50;;
15669;SDS011;18524;45.190;5.732;2022-07-05T08:19:09;3.10;;;2.30;;
15669;SDS011;18524;45.190;5.732;2022-07-05T08:24:18;2.17;;;1.90;;
15669;SDS011;18524;45.190;5.732;2022-07-05T08:29:10;6.00;;;3.77;;
15669;SDS011;18524;45.190;5.732;2022-07-05T08:34:02;3.97;;;2.33;;
15669;SDS011;18524;45.190;5.732;2022-07-05T08:38:53;2.40;;;2.20;;
15669;SDS011;18524;45.190;5.732;2022-07-05T08:43:44;2.40;;;2.20;;
15669;SDS011;18524;45.190;5.732;2022-07-05T08:48:36;3.67;;;2.23;;
15669;SDS011;18524;45.190;5.732;2022-07-05T08:53:32;3.87;;;1.90;;
15669;SDS011;18524;45.190;5.732;2022-07-05T08:58:23;2.10;;;1.90;;
15669;SDS011;18524;45.190;5.732;2022-07-05T09:03:13;3.03;;;2.10;;
15669;SDS011;18524;45.190;5.732;2022-07-05T09:08:06;2.40;;;2.17;;
15669;SDS011;18524;45.190;5.732;2022-07-05T09:12:59;3.20;;;2.00;;
15669;SDS011;18524;45.190;5.732;2022-07-05T09:17:50;2.53;;;2.17;;
15669;SDS011;18524;45.190;5.732;2022-07-05T09:22:48;2.83;;;2.50;;
15669;SDS011;18524;45.190;5.732;2022-07-05T09:32:43;3.07;;;2.17;;
15669;SDS011;18524;45.190;5.732;2022-07-05T09:37:43;2.80;;;1.90;;
15669;SDS011;18524;45.190;5.732;2022-07-05T09:42:34;2.67;;;2.43;;
15669;SDS011;18524;45.190;5.732;2022-07-05T09:47:27;3.20;;;2.20;;
15669;SDS011;18524;45.190;5.732;2022-07-05T09:52:33;2.73;;;2.50;;
15669;SDS011;18524;45.190;5.732;2022-07-05T09:57:25;4.80;;;2.17;;
15669;SDS011;18524;45.190;5.732;2022-07-05T10:02:22;5.37;;;2.70;;
15669;SDS011;18524;45.190;5.732;2022-07-05T10:07:32;2.93;;;2.30;;
15669;SDS011;18524;45.190;5.732;2022-07-05T10:12:24;4.00;;;3.20;;
15669;SDS011;18524;45.190;5.732;2022-07-05T10:17:15;4.60;;;2.43;;
15669;SDS011;18524;45.190;5.732;2022-07-05T10:22:06;3.47;;;2.40;;
15669;SDS011;18524;45.190;5.732;2022-07-05T10:26:57;2.87;;;2.20;;
15669;SDS011;18524;45.190;5.732;2022-07-05T10:31:47;2.83;;;2.53;;
15669;SDS011;18524;45.190;5.732;2022-07-05T10:36:38;4.03;;;2.70;;
15669;SDS011;18524;45.190;5.732;2022-07-05T10:41:29;3.03;;;2.83;;
15669;SDS011;18524;45.190;5.732;2022-07-05T10:46:36;2.70;;;2.47;;
15669;SDS011;18524;45.190;5.732;2022-07-05T10:51:28;2.43;;;2.23;;
15669;SDS011;18524;45.190;5.732;2022-07-05T10:56:25;2.53;;;2.33;;
15669;SDS011;18524;45.190;5.732;2022-07-05T11:06:18;4.73;;;3.60;;
15669;SDS011;18524;45.190;5.732;2022-07-05T11:11:11;3.43;;;3.13;;
15669;SDS011;18524;45.190;5.732;2022-07-05T11:21:16;4.33;;;2.60;;
15669;SDS011;18524;45.190;5.732;2022-07-05T11:26:12;3.00;;;2.70;;
15669;SDS011;18524;45.190;5.732;2022-07-05T11:31:03;3.10;;;2.80;;
15669;SDS011;18524;45.190;5.732;2022-07-05T11:35:53;2.57;;;2.37;;
15669;SDS011;18524;45.190;5.732;2022-07-05T11:40:46;5.10;;;3.20;;
15669;SDS011;18524;45.190;5.732;2022-07-05T11:45:36;3.00;;;2.77;;
15669;SDS011;18524;45.190;5.732;2022-07-05T11:50:32;3.43;;;2.53;;
15669;SDS011;18524;45.190;5.732;2022-07-05T11:55:24;3.27;;;2.97;;
15669;SDS011;18524;45.190;5.732;2022-07-05T12:00:30;3.00;;;2.70;;
15669;SDS011;18524;45.190;5.732;2022-07-05T12:05:20;7.97;;;3.13;;
15669;SDS011;18524;45.190;5.732;2022-07-05T12:10:11;6.00;;;2.70;;
15669;SDS011;18524;45.190;5.732;2022-07-05T12:15:20;3.47;;;2.63;;
15669;SDS011;18524;45.190;5.732;2022-07-05T12:20:12;3.00;;;2.23;;
15669;SDS011;18524;45.190;5.732;2022-07-05T12:25:04;4.73;;;2.50;;
15669;SDS011;18524;45.190;5.732;2022-07-05T12:29:56;3.77;;;2.10;;
15669;SDS011;18524;45.190;5.732;2022-07-05T12:34:47;3.80;;;3.37;;
15669;SDS011;18524;45.190;5.732;2022-07-05T12:39:37;3.17;;;2.20;;
15669;SDS011;18524;45.190;5.732;2022-07-05T12:44:28;2.40;;;2.30;;
15669;SDS011;18524;45.190;5.732;2022-07-05T12:49:18;3.30;;;2.23;;
15669;SDS011;18524;45.190;5.732;2022-07-05T12:54:22;4.50;;;2.97;;
15669;SDS011;18524;45.190;5.732;2022-07-05T12:59:31;2.53;;;2.33;;
15669;SDS011;18524;45.190;5.732;2022-07-05T13:04:22;3.63;;;2.07;;
15669;SDS011;18524;45.190;5.732;2022-07-05T13:09:13;3.40;;;2.60;;
15669;SDS011;18524;45.190;5.732;2022-07-05T13:14:05;2.50;;;2.07;;
15669;SDS011;18524;45.190;5.732;2022-07-05T13:19:11;2.97;;;2.13;;
15669;SDS011;18524;45.190;5.732;2022-07-05T13:24:02;2.33;;;2.13;;
15669;SDS011;18524;45.190;5.732;2022-07-05T13:28:53;2.47;;;2.33;;
15669;SDS011;18524;45.190;5.732;2022-07-05T13:33:45;5.73;;;2.20;;
15669;SDS011;18524;45.190;5.732;2022-07-05T13:38:35;2.23;;;1.90;;
15669;SDS011;18524;45.190;5.732;2022-07-05T13:43:26;6.17;;;2.73;;
15669;SDS011;18524;45.190;5.732;2022-07-05T13:48:16;3.87;;;2.57;;
15669;SDS011;18524;45.190;5.732;2022-07-05T13:53:06;3.30;;;2.40;;
15669;SDS011;18524;45.190;5.732;2022-07-05T13:57:57;2.50;;;1.70;;
15669;SDS011;18524;45.190;5.732;2022-07-05T14:02:48;4.07;;;1.80;;
15669;SDS011;18524;45.190;5.732;2022-07-05T14:07:38;2.53;;;1.90;;
15669;SDS011;18524;45.190;5.732;2022-07-05T14:12:28;2.23;;;1.63;;
15669;SDS011;18524;45.190;5.732;2022-07-05T14:17:19;1.83;;;1.50;;
15669;SDS011;18524;45.190;5.732;2022-07-05T14:22:09;2.90;;;1.63;;
15669;SDS011;18524;45.190;5.732;2022-07-05T14:26:59;1.60;;;1.50;;
15669;SDS011;18524;45.190;5.732;2022-07-05T14:31:50;2.00;;;1.60;;
15669;SDS011;18524;45.190;5.732;2022-07-05T14:36:41;3.50;;;1.50;;
15669;SDS011;18524;45.190;5.732;2022-07-05T14:41:31;4.50;;;1.53;;
15669;SDS011;18524;45.190;5.732;2022-07-05T14:46:21;1.60;;;1.50;;
15669;SDS011;18524;45.190;5.732;2022-07-05T14:51:12;4.33;;;1.37;;
15669;SDS011;18524;45.190;5.732;2022-07-05T14:56:02;2.97;;;1.57;;
15669;SDS011;18524;45.190;5.732;2022-07-05T15:00:53;3.83;;;1.50;;
15669;SDS011;18524;45.190;5.732;2022-07-05T15:05:45;2.57;;;1.23;;
15669;SDS011;18524;45.190;5.732;2022-07-05T15:10:35;4.33;;;1.30;;
15669;SDS011;18524;45.190;5.732;2022-07-05T15:15:26;2.23;;;1.30;;
15669;SDS011;18524;45.190;5.732;2022-07-05T15:20:16;3.90;;;1.40;;
15669;SDS011;18524;45.190;5.732;2022-07-05T15:25:08;2.17;;;1.20;;
15669;SDS011;18524;45.190;5.732;2022-07-05T15:29:59;3.07;;;1.30;;
15669;SDS011;18524;45.190;5.732;2022-07-05T15:34:49;2.13;;;1.30;;
15669;SDS011;18524;45.190;5.732;2022-07-05T15:39:39;1.97;;;1.30;;
15669;SDS011;18524;45.190;5.732;2022-07-05T15:44:30;1.87;;;1.20;;
15669;SDS011;18524;45.190;5.732;2022-07-05T15:49:20;2.10;;;1.43;;
15669;SDS011;18524;45.190;5.732;2022-07-05T15:54:11;1.60;;;1.50;;
15669;SDS011;18524;45.190;5.732;2022-07-05T15:59:01;3.63;;;1.50;;
15669;SDS011;18524;45.190;5.732;2022-07-05T16:03:53;3.60;;;1.40;;
15669;SDS011;18524;45.190;5.732;2022-07-05T16:08:43;1.40;;;1.13;;
15669;SDS011;18524;45.190;5.732;2022-07-05T16:13:33;2.43;;;1.20;;
15669;SDS011;18524;45.190;5.732;2022-07-05T16:18:24;2.20;;;1.23;;
15669;SDS011;18524;45.190;5.732;2022-07-05T16:23:14;1.60;;;1.10;;
15669;SDS011;18524;45.190;5.732;2022-07-05T16:28:05;1.60;;;1.10;;
15669;SDS011;18524;45.190;5.732;2022-07-05T16:32:55;1.63;;;1.20;;
15669;SDS011;18524;45.190;5.732;2022-07-05T16:37:45;1.63;;;1.33;;
15669;SDS011;18524;45.190;5.732;2022-07-05T16:42:36;1.80;;;1.20;;
15669;SDS011;18524;45.190;5.732;2022-07-05T16:47:26;2.47;;;1.37;;
15669;SDS011;18524;45.190;5.732;2022-07-05T16:52:17;2.70;;;1.30;;
15669;SDS011;18524;45.190;5.732;2022-07-05T16:57:08;3.30;;;1.20;;
15669;SDS011;18524;45.190;5.732;2022-07-05T17:01:58;1.97;;;1.27;;
15669;SDS011;18524;45.190;5.732;2022-07-05T17:06:49;1.50;;;1.30;;
15669;SDS011;18524;45.190;5.732;2022-07-05T17:11:39;1.40;;;1.30;;
15669;SDS011;18524;45.190;5.732;2022-07-05T17:16:29;2.97;;;1.50;;
15669;SDS011;18524;45.190;5.732;2022-07-05T17:21:20;1.83;;;1.10;;
15669;SDS011;18524;45.190;5.732;2022-07-05T17:26:14;1.53;;;1.37;;
15669;SDS011;18524;45.190;5.732;2022-07-05T17:31:05;1.87;;;1.20;;
15669;SDS011;18524;45.190;5.732;2022-07-05T17:35:57;1.90;;;1.20;;
15669;SDS011;18524;45.190;5.732;2022-07-05T17:40:47;1.30;;;1.20;;
15669;SDS011;18524;45.190;5.732;2022-07-05T17:45:38;2.07;;;1.17;;
15669;SDS011;18524;45.190;5.732;2022-07-05T17:50:28;3.37;;;1.20;;
15669;SDS011;18524;45.190;5.732;2022-07-05T17:55:19;1.80;;;1.20;;
15669;SDS011;18524;45.190;5.732;2022-07-05T18:00:10;2.60;;;1.10;;
15669;SDS011;18524;45.190;5.732;2022-07-05T18:05:01;1.93;;;1.27;;
15669;SDS011;18524;45.190;5.732;2022-07-05T18:09:51;4.13;;;1.40;;
15669;SDS011;18524;45.190;5.732;2022-07-05T18:14:41;3.57;;;1.40;;
15669;SDS011;18524;45.190;5.732;2022-07-05T18:19:32;1.70;;;1.40;;
15669;SDS011;18524;45.190;5.732;2022-07-05T18:24:22;3.27;;;1.63;;
15669;SDS011;18524;45.190;5.732;2022-07-05T18:29:14;3.70;;;1.67;;
15669;SDS011;18524;45.190;5.732;2022-07-05T18:34:05;6.33;;;1.80;;
15669;SDS011;18524;45.190;5.732;2022-07-05T18:38:55;2.30;;;1.53;;
15669;SDS011;18524;45.190;5.732;2022-07-05T18:43:46;1.70;;;1.37;;
15669;SDS011;18524;45.190;5.732;2022-07-05T18:48:36;1.30;;;1.17;;
15669;SDS011;18524;45.190;5.732;2022-07-05T18:53:26;2.50;;;2.10;;
15669;SDS011;18524;45.190;5.732;2022-07-05T18:58:17;2.63;;;1.70;;
15669;SDS011;18524;45.190;5.732;2022-07-05T19:03:07;1.53;;;1.40;;
15669;SDS011;18524;45.190;5.732;2022-07-05T19:07:58;2.80;;;1.50;;
15669;SDS011;18524;45.190;5.732;2022-07-05T19:13:07;2.63;;;1.40;;
15669;SDS011;18524;45.190;5.732;2022-07-05T19:18:15;1.90;;;1.50;;
15669;SDS011;18524;45.190;5.732;2022-07-05T19:23:06;2.00;;;1.70;;
15669;SDS011;18524;45.190;5.732;2022-07-05T19:27:56;1.77;;;1.33;;
15669;SDS011;18524;45.190;5.732;2022-07-05T19:32:47;1.90;;;1.50;;
15669;SDS011;18524;45.190;5.732;2022-07-05T19:37:37;1.23;;;1.13;;
15669;SDS011;18524;45.190;5.732;2022-07-05T19:42:27;1.33;;;1.23;;
15669;SDS011;18524;45.190;5.732;2022-07-05T19:47:18;1.77;;;1.50;;
15669;SDS011;18524;45.190;5.732;2022-07-05T19:52:08;1.40;;;1.30;;
15669;SDS011;18524;45.190;5.732;2022-07-05T19:56:59;1.63;;;1.47;;
15669;SDS011;18524;45.190;5.732;2022-07-05T20:01:50;2.07;;;1.73;;
15669;SDS011;18524;45.190;5.732;2022-07-05T20:06:40;2.83;;;1.80;;
15669;SDS011;18524;45.190;5.732;2022-07-05T20:11:31;2.23;;;1.80;;
15669;SDS011;18524;45.190;5.732;2022-07-05T20:16:22;2.67;;;1.87;;
15669;SDS011;18524;45.190;5.732;2022-07-05T20:21:13;2.10;;;1.40;;
15669;SDS011;18524;45.190;5.732;2022-07-05T20:26:03;2.17;;;1.40;;
15669;SDS011;18524;45.190;5.732;2022-07-05T20:30:54;2.60;;;1.50;;
15669;SDS011;18524;45.190;5.732;2022-07-05T20:35:44;1.30;;;1.20;;
15669;SDS011;18524;45.190;5.732;2022-07-05T20:40:36;1.87;;;1.40;;
15669;SDS011;18524;45.190;5.732;2022-07-05T20:45:27;1.40;;;1.30;;
15669;SDS011;18524;45.190;5.732;2022-07-05T20:50:18;1.90;;;1.33;;
15669;SDS011;18524;45.190;5.732;2022-07-05T20:55:08;2.73;;;1.03;;
15669;SDS011;18524;45.190;5.732;2022-07-05T20:59:58;1.93;;;1.30;;
15669;SDS011;18524;45.190;5.732;2022-07-05T21:04:49;1.30;;;1.20;;
15669;SDS011;18524;45.190;5.732;2022-07-05T21:09:39;1.40;;;1.30;;
15669;SDS011;18524;45.190;5.732;2022-07-05T21:14:30;1.33;;;1.23;;
15669;SDS011;18524;45.190;5.732;2022-07-05T21:19:20;1.23;;;1.00;;
15669;SDS011;18524;45.190;5.732;2022-07-05T21:24:11;1.60;;;1.13;;
15669;SDS011;18524;45.190;5.732;2022-07-05T21:29:01;1.37;;;1.10;;
15669;SDS011;18524;45.190;5.732;2022-07-05T21:33:52;2.47;;;0.90;;
15669;SDS011;18524;45.190;5.732;2022-07-05T21:38:42;1.83;;;1.30;;
15669;SDS011;18524;45.190;5.732;2022-07-05T21:43:32;1.30;;;1.20;;
15669;SDS011;18524;45.190;5.732;2022-07-05T21:48:23;1.80;;;1.20;;
15669;SDS011;18524;45.190;5.732;2022-07-05T21:53:13;1.37;;;1.00;;
15669;SDS011;18524;45.190;5.732;2022-07-05T21:58:03;1.50;;;0.97;;
15669;SDS011;18524;45.190;5.732;2022-07-05T22:02:54;2.03;;;1.00;;
15669;SDS011;18524;45.190;5.732;2022-07-05T22:08:03;1.47;;;1.10;;
15669;SDS011;18524;45.190;5.732;2022-07-05T22:12:53;2.00;;;1.60;;
15669;SDS011;18524;45.190;5.732;2022-07-05T22:17:43;2.03;;;1.20;;
15669;SDS011;18524;45.190;5.732;2022-07-05T22:22:34;1.80;;;1.07;;
15669;SDS011;18524;45.190;5.732;2022-07-05T22:27:24;1.97;;;1.20;;
15669;SDS011;18524;45.190;5.732;2022-07-05T22:32:17;2.17;;;1.10;;
15669;SDS011;18524;45.190;5.732;2022-07-05T22:37:07;1.10;;;1.00;;
15669;SDS011;18524;45.190;5.732;2022-07-05T22:41:57;1.47;;;1.00;;
15669;SDS011;18524;45.190;5.732;2022-07-05T22:46:48;1.07;;;1.00;;
15669;SDS011;18524;45.190;5.732;2022-07-05T22:51:38;1.33;;;1.10;;
15669;SDS011;18524;45.190;5.732;2022-07-05T22:56:28;1.17;;;1.00;;
15669;SDS011;18524;45.190;5.732;2022-07-05T23:01:19;1.73;;;1.13;;
15669;SDS011;18524;45.190;5.732;2022-07-05T23:06:09;0.80;;;0.80;;
15669;SDS011;18524;45.190;5.732;2022-07-05T23:11:00;1.70;;;0.90;;
15669;SDS011;18524;45.190;5.732;2022-07-05T23:15:50;2.33;;;1.00;;
15669;SDS011;18524;45.190;5.732;2022-07-05T23:20:40;1.50;;;0.80;;
15669;SDS011;18524;45.190;5.732;2022-07-05T23:25:31;0.97;;;0.90;;
15669;SDS011;18524;45.190;5.732;2022-07-05T23:30:22;0.90;;;0.90;;
15669;SDS011;18524;45.190;5.732;2022-07-05T23:35:12;1.27;;;1.07;;
15669;SDS011;18524;45.190;5.732;2022-07-05T23:40:03;1.33;;;1.23;;
15669;SDS011;18524;45.190;5.732;2022-07-05T23:44:54;1.87;;;1.00;;
15669;SDS011;18524;45.190;5.732;2022-07-05T23:49:44;2.30;;;1.10;;
15669;SDS011;18524;45.190;5.732;2022-07-05T23:54:36;1.10;;;0.80;;
15669;SDS011;18524;45.190;5.732;2022-07-05T23:59:26;1.20;;;1.10;;
